sensor_id;sensor_type;location;lat;lon;timestamp;temperature;humidity
4501;DHT22;2263;54.654;9.410;2023-06-26T00:00:15;25.30;63.60
4501;DHT22;2263;54.654;9.410;2023-06-26T00:02:42;25.30;63.70
4501;DHT22;2263;54.654;9.410;2023-06-26T00:05:10;25.20;63.60
4501;DHT22;2263;54.654;9.410;2023-06-26T00:07:38;25.20;63.60
4501;DHT22;2263;54.654;9.410;2023-06-26T00:10:07;25.20;63.60
4501;DHT22;2263;54.654;9.410;2023-06-26T00:12:37;25.20;63.60
4501;DHT22;2263;54.654;9.410;2023-06-26T00:15:05;25.20;63.80
4501;DHT22;2263;54.654;9.410;2023-06-26T00:17:35;25.20;63.70
4501;DHT22;2263;54.654;9.410;2023-06-26T00:20:05;25.10;63.70
4501;DHT22;2263;54.654;9.410;2023-06-26T00:22:36;25.10;63.60
4501;DHT22;2263;54.654;9.410;2023-06-26T00:25:08;25.10;63.40
4501;DHT22;2263;54.654;9.410;2023-06-26T00:27:36;25.10;63.80
4501;DHT22;2263;54.654;9.410;2023-06-26T00:30:04;25.00;63.80
4501;DHT22;2263;54.654;9.410;2023-06-26T00:32:32;25.00;63.70
4501;DHT22;2263;54.654;9.410;2023-06-26T00:35:03;25.00;63.70
4501;DHT22;2263;54.654;9.410;2023-06-26T00:37:31;25.00;63.70
4501;DHT22;2263;54.654;9.410;2023-06-26T00:39:58;25.00;63.80
4501;DHT22;2263;54.654;9.410;2023-06-26T00:42:26;25.00;63.90
4501;DHT22;2263;54.654;9.410;2023-06-26T00:44:54;24.90;63.80
4501;DHT22;2263;54.654;9.410;2023-06-26T00:47:31;24.90;63.80
4501;DHT22;2263;54.654;9.410;2023-06-26T00:49:58;24.90;63.60
4501;DHT22;2263;54.654;9.410;2023-06-26T00:52:26;24.90;63.90
4501;DHT22;2263;54.654;9.410;2023-06-26T00:54:54;24.80;63.70
4501;DHT22;2263;54.654;9.410;2023-06-26T00:57:22;24.80;63.90
4501;DHT22;2263;54.654;9.410;2023-06-26T00:59:50;24.80;63.80
4501;DHT22;2263;54.654;9.410;2023-06-26T01:02:18;24.80;63.90
4501;DHT22;2263;54.654;9.410;2023-06-26T01:04:51;24.80;63.90
4501;DHT22;2263;54.654;9.410;2023-06-26T01:07:20;24.80;64.00
4501;DHT22;2263;54.654;9.410;2023-06-26T01:09:49;24.70;64.00
4501;DHT22;2263;54.654;9.410;2023-06-26T01:12:16;24.70;64.00
4501;DHT22;2263;54.654;9.410;2023-06-26T01:14:44;24.70;64.00
4501;DHT22;2263;54.654;9.410;2023-06-26T01:17:19;24.70;64.10
4501;DHT22;2263;54.654;9.410;2023-06-26T01:19:47;24.70;64.20
4501;DHT22;2263;54.654;9.410;2023-06-26T01:22:47;24.60;63.80
4501;DHT22;2263;54.654;9.410;2023-06-26T01:27:53;24.50;63.60
4501;DHT22;2263;54.654;9.410;2023-06-26T01:30:22;24.50;64.00
4501;DHT22;2263;54.654;9.410;2023-06-26T01:32:51;24.50;64.00
4501;DHT22;2263;54.654;9.410;2023-06-26T01:35:22;24.50;64.10
4501;DHT22;2263;54.654;9.410;2023-06-26T01:37:50;24.50;64.10
4501;DHT22;2263;54.654;9.410;2023-06-26T01:40:18;24.50;64.20
4501;DHT22;2263;54.654;9.410;2023-06-26T01:42:48;24.50;64.20
4501;DHT22;2263;54.654;9.410;2023-06-26T01:45:25;24.40;64.00
4501;DHT22;2263;54.654;9.410;2023-06-26T01:47:57;24.40;64.10
4501;DHT22;2263;54.654;9.410;2023-06-26T01:50:29;24.40;63.80
4501;DHT22;2263;54.654;9.410;2023-06-26T01:53:10;24.40;64.00
4501;DHT22;2263;54.654;9.410;2023-06-26T01:55:46;24.40;64.10
4501;DHT22;2263;54.654;9.410;2023-06-26T01:58:15;24.40;64.20
4501;DHT22;2263;54.654;9.410;2023-06-26T02:00:44;24.30;64.10
4501;DHT22;2263;54.654;9.410;2023-06-26T02:03:12;24.30;64.10
4501;DHT22;2263;54.654;9.410;2023-06-26T02:05:40;24.30;64.20
4501;DHT22;2263;54.654;9.410;2023-06-26T02:08:15;24.30;64.20
4501;DHT22;2263;54.654;9.410;2023-06-26T02:10:43;24.30;64.20
4501;DHT22;2263;54.654;9.410;2023-06-26T02:13:10;24.20;64.10
4501;DHT22;2263;54.654;9.410;2023-06-26T02:15:40;24.20;64.20
4501;DHT22;2263;54.654;9.410;2023-06-26T02:18:08;24.20;64.30
4501;DHT22;2263;54.654;9.410;2023-06-26T02:20:36;24.20;64.00
4501;DHT22;2263;54.654;9.410;2023-06-26T02:23:04;24.10;64.70
4501;DHT22;2263;54.654;9.410;2023-06-26T02:25:31;24.10;64.00
4501;DHT22;2263;54.654;9.410;2023-06-26T02:27:59;24.10;64.20
4501;DHT22;2263;54.654;9.410;2023-06-26T02:30:26;24.10;64.30
4501;DHT22;2263;54.654;9.410;2023-06-26T02:32:54;24.10;64.30
4501;DHT22;2263;54.654;9.410;2023-06-26T02:35:22;24.10;64.20
4501;DHT22;2263;54.654;9.410;2023-06-26T02:37:52;24.00;64.20
4501;DHT22;2263;54.654;9.410;2023-06-26T02:40:22;24.00;64.30
4501;DHT22;2263;54.654;9.410;2023-06-26T02:42:50;24.00;64.30
4501;DHT22;2263;54.654;9.410;2023-06-26T02:45:18;24.00;64.30
4501;DHT22;2263;54.654;9.410;2023-06-26T02:47:45;24.00;64.40
4501;DHT22;2263;54.654;9.410;2023-06-26T02:50:13;23.90;64.10
4501;DHT22;2263;54.654;9.410;2023-06-26T02:52:44;23.90;64.30
4501;DHT22;2263;54.654;9.410;2023-06-26T02:55:11;23.90;64.20
4501;DHT22;2263;54.654;9.410;2023-06-26T02:57:42;23.90;64.20
4501;DHT22;2263;54.654;9.410;2023-06-26T03:00:10;23.90;64.20
4501;DHT22;2263;54.654;9.410;2023-06-26T03:02:44;23.80;64.40
4501;DHT22;2263;54.654;9.410;2023-06-26T03:05:11;23.80;64.40
4501;DHT22;2263;54.654;9.410;2023-06-26T03:07:43;23.80;64.60
4501;DHT22;2263;54.654;9.410;2023-06-26T03:10:10;23.80;64.30
4501;DHT22;2263;54.654;9.410;2023-06-26T03:12:38;23.70;64.40
4501;DHT22;2263;54.654;9.410;2023-06-26T03:15:06;23.70;64.50
4501;DHT22;2263;54.654;9.410;2023-06-26T03:17:33;23.70;64.40
4501;DHT22;2263;54.654;9.410;2023-06-26T03:20:01;23.70;64.50
4501;DHT22;2263;54.654;9.410;2023-06-26T03:22:36;23.70;64.40
4501;DHT22;2263;54.654;9.410;2023-06-26T03:25:04;23.70;64.60
4501;DHT22;2263;54.654;9.410;2023-06-26T03:27:32;23.60;64.60
4501;DHT22;2263;54.654;9.410;2023-06-26T03:30:00;23.60;64.70
4501;DHT22;2263;54.654;9.410;2023-06-26T03:32:28;23.60;64.70
4501;DHT22;2263;54.654;9.410;2023-06-26T03:34:55;23.60;64.70
4501;DHT22;2263;54.654;9.410;2023-06-26T03:37:23;23.60;64.90
4501;DHT22;2263;54.654;9.410;2023-06-26T03:39:51;23.50;64.80
4501;DHT22;2263;54.654;9.410;2023-06-26T03:42:18;23.50;64.90
4501;DHT22;2263;54.654;9.410;2023-06-26T03:44:46;23.50;64.70
4501;DHT22;2263;54.654;9.410;2023-06-26T03:47:17;23.50;65.00
4501;DHT22;2263;54.654;9.410;2023-06-26T03:49:44;23.50;64.90
4501;DHT22;2263;54.654;9.410;2023-06-26T03:52:12;23.50;65.00
4501;DHT22;2263;54.654;9.410;2023-06-26T03:54:39;23.40;64.90
4501;DHT22;2263;54.654;9.410;2023-06-26T03:57:07;23.40;65.10
4501;DHT22;2263;54.654;9.410;2023-06-26T03:59:38;23.40;65.10
4501;DHT22;2263;54.654;9.410;2023-06-26T04:02:06;23.40;65.30
4501;DHT22;2263;54.654;9.410;2023-06-26T04:04:34;23.40;65.20
4501;DHT22;2263;54.654;9.410;2023-06-26T04:07:02;23.40;65.30
4501;DHT22;2263;54.654;9.410;2023-06-26T04:09:32;23.40;65.20
4501;DHT22;2263;54.654;9.410;2023-06-26T04:12:00;23.40;65.20
4501;DHT22;2263;54.654;9.410;2023-06-26T04:14:28;23.40;65.50
4501;DHT22;2263;54.654;9.410;2023-06-26T04:17:01;23.40;65.70
4501;DHT22;2263;54.654;9.410;2023-06-26T04:19:30;23.40;66.40
4501;DHT22;2263;54.654;9.410;2023-06-26T04:22:00;23.40;65.50
4501;DHT22;2263;54.654;9.410;2023-06-26T04:24:27;23.40;65.90
4501;DHT22;2263;54.654;9.410;2023-06-26T04:26:55;23.30;65.70
4501;DHT22;2263;54.654;9.410;2023-06-26T04:29:26;23.30;66.10
4501;DHT22;2263;54.654;9.410;2023-06-26T04:31:57;23.30;65.70
4501;DHT22;2263;54.654;9.410;2023-06-26T04:34:27;23.30;66.20
4501;DHT22;2263;54.654;9.410;2023-06-26T04:37:02;23.30;66.40
4501;DHT22;2263;54.654;9.410;2023-06-26T04:39:31;23.30;66.50
4501;DHT22;2263;54.654;9.410;2023-06-26T04:41:59;23.30;66.60
4501;DHT22;2263;54.654;9.410;2023-06-26T04:44:26;23.30;66.40
4501;DHT22;2263;54.654;9.410;2023-06-26T04:46:54;23.30;66.50
4501;DHT22;2263;54.654;9.410;2023-06-26T04:49:21;23.30;66.60
4501;DHT22;2263;54.654;9.410;2023-06-26T04:51:49;23.30;66.80
4501;DHT22;2263;54.654;9.410;2023-06-26T04:54:18;23.30;67.10
4501;DHT22;2263;54.654;9.410;2023-06-26T04:56:46;23.30;67.00
4501;DHT22;2263;54.654;9.410;2023-06-26T04:59:14;23.30;67.00
4501;DHT22;2263;54.654;9.410;2023-06-26T05:01:42;23.30;67.20
4501;DHT22;2263;54.654;9.410;2023-06-26T05:04:15;23.20;67.10
4501;DHT22;2263;54.654;9.410;2023-06-26T05:06:43;23.20;67.30
4501;DHT22;2263;54.654;9.410;2023-06-26T05:09:11;23.20;67.20
4501;DHT22;2263;54.654;9.410;2023-06-26T05:11:39;23.20;67.30
4501;DHT22;2263;54.654;9.410;2023-06-26T05:14:06;23.20;67.40
4501;DHT22;2263;54.654;9.410;2023-06-26T05:16:37;23.20;67.50
4501;DHT22;2263;54.654;9.410;2023-06-26T05:19:07;23.20;67.40
4501;DHT22;2263;54.654;9.410;2023-06-26T05:21:35;23.30;67.70
4501;DHT22;2263;54.654;9.410;2023-06-26T05:24:03;23.30;67.60
4501;DHT22;2263;54.654;9.410;2023-06-26T05:26:32;23.20;68.00
4501;DHT22;2263;54.654;9.410;2023-06-26T05:29:01;23.20;68.00
4501;DHT22;2263;54.654;9.410;2023-06-26T05:31:33;23.20;68.20
4501;DHT22;2263;54.654;9.410;2023-06-26T05:34:03;23.20;68.10
4501;DHT22;2263;54.654;9.410;2023-06-26T05:36:33;23.20;68.10
4501;DHT22;2263;54.654;9.410;2023-06-26T05:39:02;23.30;68.10
4501;DHT22;2263;54.654;9.410;2023-06-26T05:41:30;23.30;68.50
4501;DHT22;2263;54.654;9.410;2023-06-26T05:44:03;23.30;68.30
4501;DHT22;2263;54.654;9.410;2023-06-26T05:46:31;23.30;68.70
4501;DHT22;2263;54.654;9.410;2023-06-26T05:49:02;23.20;68.60
4501;DHT22;2263;54.654;9.410;2023-06-26T05:51:29;23.20;68.60
4501;DHT22;2263;54.654;9.410;2023-06-26T05:53:57;23.20;68.50
4501;DHT22;2263;54.654;9.410;2023-06-26T05:56:26;23.20;68.70
4501;DHT22;2263;54.654;9.410;2023-06-26T05:58:54;23.20;68.60
4501;DHT22;2263;54.654;9.410;2023-06-26T06:01:22;23.20;68.50
4501;DHT22;2263;54.654;9.410;2023-06-26T06:03:54;23.30;68.50
4501;DHT22;2263;54.654;9.410;2023-06-26T06:06:22;23.30;68.60
4501;DHT22;2263;54.654;9.410;2023-06-26T06:08:49;23.30;68.50
4501;DHT22;2263;54.654;9.410;2023-06-26T06:11:17;23.30;68.50
4501;DHT22;2263;54.654;9.410;2023-06-26T06:13:45;23.30;68.50
4501;DHT22;2263;54.654;9.410;2023-06-26T06:16:12;23.30;68.50
4501;DHT22;2263;54.654;9.410;2023-06-26T06:18:49;23.30;68.40
4501;DHT22;2263;54.654;9.410;2023-06-26T06:21:16;23.30;68.40
4501;DHT22;2263;54.654;9.410;2023-06-26T06:23:44;23.30;68.50
4501;DHT22;2263;54.654;9.410;2023-06-26T06:26:16;23.30;68.50
4501;DHT22;2263;54.654;9.410;2023-06-26T06:28:44;23.30;68.70
4501;DHT22;2263;54.654;9.410;2023-06-26T06:31:14;23.30;68.60
4501;DHT22;2263;54.654;9.410;2023-06-26T06:33:42;23.40;68.80
4501;DHT22;2263;54.654;9.410;2023-06-26T06:36:09;23.40;69.00
4501;DHT22;2263;54.654;9.410;2023-06-26T06:38:37;23.40;69.00
4501;DHT22;2263;54.654;9.410;2023-06-26T06:41:05;23.40;69.00
4501;DHT22;2263;54.654;9.410;2023-06-26T06:43:32;23.40;69.10
4501;DHT22;2263;54.654;9.410;2023-06-26T06:46:02;23.40;69.10
4501;DHT22;2263;54.654;9.410;2023-06-26T06:48:31;23.40;69.10
4501;DHT22;2263;54.654;9.410;2023-06-26T06:51:02;23.50;69.70
4501;DHT22;2263;54.654;9.410;2023-06-26T06:53:32;23.50;69.50
4501;DHT22;2263;54.654;9.410;2023-06-26T06:55:59;23.50;69.70
4501;DHT22;2263;54.654;9.410;2023-06-26T06:58:27;23.50;69.90
4501;DHT22;2263;54.654;9.410;2023-06-26T07:00:55;23.60;70.10
4501;DHT22;2263;54.654;9.410;2023-06-26T07:03:23;23.60;69.90
4501;DHT22;2263;54.654;9.410;2023-06-26T07:05:51;23.60;70.00
4501;DHT22;2263;54.654;9.410;2023-06-26T07:08:18;23.60;70.30
4501;DHT22;2263;54.654;9.410;2023-06-26T07:10:46;23.70;70.20
4501;DHT22;2263;54.654;9.410;2023-06-26T07:13:14;23.70;70.10
4501;DHT22;2263;54.654;9.410;2023-06-26T07:15:41;23.70;70.20
4501;DHT22;2263;54.654;9.410;2023-06-26T07:18:09;23.70;70.20
4501;DHT22;2263;54.654;9.410;2023-06-26T07:20:37;23.70;70.30
4501;DHT22;2263;54.654;9.410;2023-06-26T07:23:11;23.70;70.10
4501;DHT22;2263;54.654;9.410;2023-06-26T07:25:39;23.80;70.30
4501;DHT22;2263;54.654;9.410;2023-06-26T07:28:13;23.80;70.20
4501;DHT22;2263;54.654;9.410;2023-06-26T07:30:41;23.80;70.30
4501;DHT22;2263;54.654;9.410;2023-06-26T07:33:12;23.80;70.20
4501;DHT22;2263;54.654;9.410;2023-06-26T07:35:42;23.80;70.20
4501;DHT22;2263;54.654;9.410;2023-06-26T07:38:10;23.90;70.30
4501;DHT22;2263;54.654;9.410;2023-06-26T07:40:38;23.90;70.50
4501;DHT22;2263;54.654;9.410;2023-06-26T07:43:08;23.90;70.30
4501;DHT22;2263;54.654;9.410;2023-06-26T07:45:39;23.90;70.40
4501;DHT22;2263;54.654;9.410;2023-06-26T07:48:13;24.00;70.40
4501;DHT22;2263;54.654;9.410;2023-06-26T07:50:40;24.00;70.40
4501;DHT22;2263;54.654;9.410;2023-06-26T07:53:08;24.00;70.50
4501;DHT22;2263;54.654;9.410;2023-06-26T07:55:36;24.00;70.50
4501;DHT22;2263;54.654;9.410;2023-06-26T07:58:04;24.00;70.90
4501;DHT22;2263;54.654;9.410;2023-06-26T08:00:31;24.00;70.90
4501;DHT22;2263;54.654;9.410;2023-06-26T08:03:02;24.00;71.50
4501;DHT22;2263;54.654;9.410;2023-06-26T08:05:30;24.00;74.80
4501;DHT22;2263;54.654;9.410;2023-06-26T08:07:59;24.10;75.40
4501;DHT22;2263;54.654;9.410;2023-06-26T08:10:29;24.30;77.00
4501;DHT22;2263;54.654;9.410;2023-06-26T08:12:57;24.30;78.20
4501;DHT22;2263;54.654;9.410;2023-06-26T08:15:25;24.50;79.00
4501;DHT22;2263;54.654;9.410;2023-06-26T08:17:53;24.60;79.40
4501;DHT22;2263;54.654;9.410;2023-06-26T08:20:24;24.70;79.40
4501;DHT22;2263;54.654;9.410;2023-06-26T08:22:51;24.70;79.70
4501;DHT22;2263;54.654;9.410;2023-06-26T08:25:21;24.80;80.00
4501;DHT22;2263;54.654;9.410;2023-06-26T08:27:49;24.80;80.00
4501;DHT22;2263;54.654;9.410;2023-06-26T08:30:20;24.90;80.30
4501;DHT22;2263;54.654;9.410;2023-06-26T08:32:47;25.00;80.40
4501;DHT22;2263;54.654;9.410;2023-06-26T08:35:15;25.10;80.40
4501;DHT22;2263;54.654;9.410;2023-06-26T08:37:43;25.20;80.30
4501;DHT22;2263;54.654;9.410;2023-06-26T08:40:12;25.10;80.10
4501;DHT22;2263;54.654;9.410;2023-06-26T08:42:39;25.20;80.00
4501;DHT22;2263;54.654;9.410;2023-06-26T08:45:07;25.20;79.80
4501;DHT22;2263;54.654;9.410;2023-06-26T08:47:35;25.30;79.80
4501;DHT22;2263;54.654;9.410;2023-06-26T08:53:00;25.30;79.30
4501;DHT22;2263;54.654;9.410;2023-06-26T08:55:32;25.30;79.20
4501;DHT22;2263;54.654;9.410;2023-06-26T08:58:00;25.40;79.20
4501;DHT22;2263;54.654;9.410;2023-06-26T09:00:29;25.40;79.10
4501;DHT22;2263;54.654;9.410;2023-06-26T09:02:58;25.40;79.00
4501;DHT22;2263;54.654;9.410;2023-06-26T09:05:27;25.40;78.80
4501;DHT22;2263;54.654;9.410;2023-06-26T09:07:54;25.40;78.70
4501;DHT22;2263;54.654;9.410;2023-06-26T09:10:25;25.50;78.60
4501;DHT22;2263;54.654;9.410;2023-06-26T09:12:55;25.40;78.20
4501;DHT22;2263;54.654;9.410;2023-06-26T09:15:24;25.40;78.10
4501;DHT22;2263;54.654;9.410;2023-06-26T09:17:56;25.40;77.90
4501;DHT22;2263;54.654;9.410;2023-06-26T09:20:28;25.40;77.70
4501;DHT22;2263;54.654;9.410;2023-06-26T09:22:57;25.30;77.50
4501;DHT22;2263;54.654;9.410;2023-06-26T09:25:26;25.30;77.30
4501;DHT22;2263;54.654;9.410;2023-06-26T09:27:54;25.30;77.10
4501;DHT22;2263;54.654;9.410;2023-06-26T09:30:22;25.30;77.00
4501;DHT22;2263;54.654;9.410;2023-06-26T09:32:50;25.30;76.90
4501;DHT22;2263;54.654;9.410;2023-06-26T09:35:18;25.30;76.80
4501;DHT22;2263;54.654;9.410;2023-06-26T09:37:46;25.30;76.80
4501;DHT22;2263;54.654;9.410;2023-06-26T09:40:14;25.30;76.80
4501;DHT22;2263;54.654;9.410;2023-06-26T09:42:42;25.20;76.70
4501;DHT22;2263;54.654;9.410;2023-06-26T09:45:18;25.20;76.60
4501;DHT22;2263;54.654;9.410;2023-06-26T09:47:46;25.20;76.50
4501;DHT22;2263;54.654;9.410;2023-06-26T09:50:23;25.20;76.40
4501;DHT22;2263;54.654;9.410;2023-06-26T09:52:53;25.20;76.30
4501;DHT22;2263;54.654;9.410;2023-06-26T09:55:21;25.10;76.10
4501;DHT22;2263;54.654;9.410;2023-06-26T09:57:50;25.00;76.10
4501;DHT22;2263;54.654;9.410;2023-06-26T10:00:19;25.00;76.00
4501;DHT22;2263;54.654;9.410;2023-06-26T10:02:47;25.00;76.10
4501;DHT22;2263;54.654;9.410;2023-06-26T10:05:15;25.00;76.10
4501;DHT22;2263;54.654;9.410;2023-06-26T10:07:43;25.00;76.10
4501;DHT22;2263;54.654;9.410;2023-06-26T10:10:11;25.00;76.10
4501;DHT22;2263;54.654;9.410;2023-06-26T10:12:39;25.00;76.10
4501;DHT22;2263;54.654;9.410;2023-06-26T10:15:11;25.00;76.10
4501;DHT22;2263;54.654;9.410;2023-06-26T10:17:42;25.00;76.10
4501;DHT22;2263;54.654;9.410;2023-06-26T10:20:10;25.00;76.10
4501;DHT22;2263;54.654;9.410;2023-06-26T10:22:47;25.00;76.10
4501;DHT22;2263;54.654;9.410;2023-06-26T10:25:18;25.00;76.10
4501;DHT22;2263;54.654;9.410;2023-06-26T10:27:55;25.00;76.10
4501;DHT22;2263;54.654;9.410;2023-06-26T10:30:29;25.00;76.00
4501;DHT22;2263;54.654;9.410;2023-06-26T10:32:59;25.00;76.10
4501;DHT22;2263;54.654;9.410;2023-06-26T10:35:27;25.00;76.10
4501;DHT22;2263;54.654;9.410;2023-06-26T10:38:01;24.90;76.00
4501;DHT22;2263;54.654;9.410;2023-06-26T10:40:42;24.90;76.00
4501;DHT22;2263;54.654;9.410;2023-06-26T10:43:11;24.90;76.00
4501;DHT22;2263;54.654;9.410;2023-06-26T10:45:47;24.90;76.00
4501;DHT22;2263;54.654;9.410;2023-06-26T10:48:20;24.90;75.80
4501;DHT22;2263;54.654;9.410;2023-06-26T10:50:48;24.90;75.80
4501;DHT22;2263;54.654;9.410;2023-06-26T10:56:05;24.90;76.00
4501;DHT22;2263;54.654;9.410;2023-06-26T11:03:40;25.00;76.40
4501;DHT22;2263;54.654;9.410;2023-06-26T11:06:12;25.10;76.80
4501;DHT22;2263;54.654;9.410;2023-06-26T11:08:53;25.20;77.20
4501;DHT22;2263;54.654;9.410;2023-06-26T11:14:23;25.20;77.00
4501;DHT22;2263;54.654;9.410;2023-06-26T11:16:51;25.20;76.80
4501;DHT22;2263;54.654;9.410;2023-06-26T11:19:20;25.20;76.60
4501;DHT22;2263;54.654;9.410;2023-06-26T11:21:48;25.20;76.40
4501;DHT22;2263;54.654;9.410;2023-06-26T11:24:16;25.20;76.40
4501;DHT22;2263;54.654;9.410;2023-06-26T11:26:44;25.20;76.20
4501;DHT22;2263;54.654;9.410;2023-06-26T11:29:12;25.30;76.00
4501;DHT22;2263;54.654;9.410;2023-06-26T11:31:41;25.30;76.00
4501;DHT22;2263;54.654;9.410;2023-06-26T11:34:13;25.30;76.00
4501;DHT22;2263;54.654;9.410;2023-06-26T11:36:43;25.40;75.80
4501;DHT22;2263;54.654;9.410;2023-06-26T11:39:13;25.40;75.60
4501;DHT22;2263;54.654;9.410;2023-06-26T11:41:41;25.50;75.30
4501;DHT22;2263;54.654;9.410;2023-06-26T11:44:09;25.50;74.90
4501;DHT22;2263;54.654;9.410;2023-06-26T11:46:38;25.50;74.90
4501;DHT22;2263;54.654;9.410;2023-06-26T11:49:06;25.50;74.00
4501;DHT22;2263;54.654;9.410;2023-06-26T11:51:35;25.50;74.20
4501;DHT22;2263;54.654;9.410;2023-06-26T11:54:05;25.50;74.20
4501;DHT22;2263;54.654;9.410;2023-06-26T11:56:33;25.50;74.10
4501;DHT22;2263;54.654;9.410;2023-06-26T11:59:06;25.50;73.80
4501;DHT22;2263;54.654;9.410;2023-06-26T12:01:39;25.50;73.90
4501;DHT22;2263;54.654;9.410;2023-06-26T12:04:10;25.60;73.90
4501;DHT22;2263;54.654;9.410;2023-06-26T12:06:40;25.70;73.50
4501;DHT22;2263;54.654;9.410;2023-06-26T12:09:09;25.70;73.10
4501;DHT22;2263;54.654;9.410;2023-06-26T12:11:41;25.70;73.20
4501;DHT22;2263;54.654;9.410;2023-06-26T12:14:11;25.70;73.00
4501;DHT22;2263;54.654;9.410;2023-06-26T12:16:40;25.60;72.90
4501;DHT22;2263;54.654;9.410;2023-06-26T12:19:08;25.60;72.30
4501;DHT22;2263;54.654;9.410;2023-06-26T12:24:19;25.70;71.90
4501;DHT22;2263;54.654;9.410;2023-06-26T12:26:50;25.70;71.90
4501;DHT22;2263;54.654;9.410;2023-06-26T12:29:21;25.70;71.90
4501;DHT22;2263;54.654;9.410;2023-06-26T12:31:51;25.70;72.30
4501;DHT22;2263;54.654;9.410;2023-06-26T12:34:20;25.70;71.60
4501;DHT22;2263;54.654;9.410;2023-06-26T12:36:50;25.70;71.60
4501;DHT22;2263;54.654;9.410;2023-06-26T12:39:21;25.60;71.50
4501;DHT22;2263;54.654;9.410;2023-06-26T12:41:52;25.60;71.30
4501;DHT22;2263;54.654;9.410;2023-06-26T12:44:30;25.70;70.80
4501;DHT22;2263;54.654;9.410;2023-06-26T12:47:01;25.70;70.50
4501;DHT22;2263;54.654;9.410;2023-06-26T12:49:37;25.70;70.20
4501;DHT22;2263;54.654;9.410;2023-06-26T12:52:07;25.70;70.00
4501;DHT22;2263;54.654;9.410;2023-06-26T12:54:36;25.70;69.30
4501;DHT22;2263;54.654;9.410;2023-06-26T12:57:04;25.70;69.40
4501;DHT22;2263;54.654;9.410;2023-06-26T12:59:33;25.70;69.20
4501;DHT22;2263;54.654;9.410;2023-06-26T13:02:00;25.70;69.70
4501;DHT22;2263;54.654;9.410;2023-06-26T13:04:28;25.70;68.70
4501;DHT22;2263;54.654;9.410;2023-06-26T13:06:56;25.70;68.90
4501;DHT22;2263;54.654;9.410;2023-06-26T13:09:25;25.70;68.90
4501;DHT22;2263;54.654;9.410;2023-06-26T13:11:53;25.70;69.10
4501;DHT22;2263;54.654;9.410;2023-06-26T13:14:20;25.70;69.20
4501;DHT22;2263;54.654;9.410;2023-06-26T13:16:48;25.70;68.60
4501;DHT22;2263;54.654;9.410;2023-06-26T13:19:16;25.70;68.60
4501;DHT22;2263;54.654;9.410;2023-06-26T13:21:44;25.70;68.20
4501;DHT22;2263;54.654;9.410;2023-06-26T13:24:11;25.70;68.30
4501;DHT22;2263;54.654;9.410;2023-06-26T13:26:40;25.70;68.40
4501;DHT22;2263;54.654;9.410;2023-06-26T13:29:08;25.60;68.20
4501;DHT22;2263;54.654;9.410;2023-06-26T13:31:35;25.60;68.40
4501;DHT22;2263;54.654;9.410;2023-06-26T13:34:04;25.60;68.00
4501;DHT22;2263;54.654;9.410;2023-06-26T13:36:32;25.60;67.80
4501;DHT22;2263;54.654;9.410;2023-06-26T13:39:02;25.60;68.40
4501;DHT22;2263;54.654;9.410;2023-06-26T13:41:30;25.60;67.40
4501;DHT22;2263;54.654;9.410;2023-06-26T13:43:58;25.60;67.50
4501;DHT22;2263;54.654;9.410;2023-06-26T13:46:36;25.60;67.60
4501;DHT22;2263;54.654;9.410;2023-06-26T13:49:04;25.60;67.50
4501;DHT22;2263;54.654;9.410;2023-06-26T13:51:32;25.60;67.30
4501;DHT22;2263;54.654;9.410;2023-06-26T13:53:59;25.60;68.20
4501;DHT22;2263;54.654;9.410;2023-06-26T13:56:28;25.50;67.60
4501;DHT22;2263;54.654;9.410;2023-06-26T13:58:57;25.50;67.20
4501;DHT22;2263;54.654;9.410;2023-06-26T14:01:25;25.50;67.30
4501;DHT22;2263;54.654;9.410;2023-06-26T14:03:54;25.50;66.90
4501;DHT22;2263;54.654;9.410;2023-06-26T14:06:21;25.50;66.90
4501;DHT22;2263;54.654;9.410;2023-06-26T14:08:49;25.50;67.00
4501;DHT22;2263;54.654;9.410;2023-06-26T14:11:17;25.50;67.20
4501;DHT22;2263;54.654;9.410;2023-06-26T14:13:44;25.50;67.20
4501;DHT22;2263;54.654;9.410;2023-06-26T14:16:13;25.50;66.70
4501;DHT22;2263;54.654;9.410;2023-06-26T14:18:41;25.50;66.50
4501;DHT22;2263;54.654;9.410;2023-06-26T14:21:09;25.40;65.90
4501;DHT22;2263;54.654;9.410;2023-06-26T14:23:37;25.40;66.50
4501;DHT22;2263;54.654;9.410;2023-06-26T14:26:04;25.40;66.70
4501;DHT22;2263;54.654;9.410;2023-06-26T14:28:32;25.40;66.90
4501;DHT22;2263;54.654;9.410;2023-06-26T14:31:00;25.40;67.20
4501;DHT22;2263;54.654;9.410;2023-06-26T14:33:27;25.40;66.80
4501;DHT22;2263;54.654;9.410;2023-06-26T14:35:55;25.40;66.70
4501;DHT22;2263;54.654;9.410;2023-06-26T14:38:23;25.40;66.80
4501;DHT22;2263;54.654;9.410;2023-06-26T14:40:50;25.40;66.50
4501;DHT22;2263;54.654;9.410;2023-06-26T14:43:18;25.40;66.60
4501;DHT22;2263;54.654;9.410;2023-06-26T14:45:47;25.40;66.70
4501;DHT22;2263;54.654;9.410;2023-06-26T14:48:15;25.40;66.70
4501;DHT22;2263;54.654;9.410;2023-06-26T14:50:42;25.40;66.90
4501;DHT22;2263;54.654;9.410;2023-06-26T14:53:10;25.40;66.70
4501;DHT22;2263;54.654;9.410;2023-06-26T14:55:38;25.30;66.70
4501;DHT22;2263;54.654;9.410;2023-06-26T14:58:05;25.30;66.60
4501;DHT22;2263;54.654;9.410;2023-06-26T15:00:33;25.30;66.50
4501;DHT22;2263;54.654;9.410;2023-06-26T15:03:01;25.30;66.90
4501;DHT22;2263;54.654;9.410;2023-06-26T15:05:28;25.30;66.80
4501;DHT22;2263;54.654;9.410;2023-06-26T15:07:56;25.30;66.50
4501;DHT22;2263;54.654;9.410;2023-06-26T15:10:24;25.30;66.70
4501;DHT22;2263;54.654;9.410;2023-06-26T15:12:54;25.30;66.70
4501;DHT22;2263;54.654;9.410;2023-06-26T15:15:22;25.30;66.60
4501;DHT22;2263;54.654;9.410;2023-06-26T15:17:50;25.30;66.80
4501;DHT22;2263;54.654;9.410;2023-06-26T15:20:17;25.30;67.00
4501;DHT22;2263;54.654;9.410;2023-06-26T15:22:45;25.30;66.90
4501;DHT22;2263;54.654;9.410;2023-06-26T15:25:13;25.30;66.80
4501;DHT22;2263;54.654;9.410;2023-06-26T15:27:40;25.20;66.40
4501;DHT22;2263;54.654;9.410;2023-06-26T15:30:08;25.20;66.80
4501;DHT22;2263;54.654;9.410;2023-06-26T15:32:36;25.20;66.60
4501;DHT22;2263;54.654;9.410;2023-06-26T15:35:04;25.20;66.10
4501;DHT22;2263;54.654;9.410;2023-06-26T15:37:32;25.20;65.90
4501;DHT22;2263;54.654;9.410;2023-06-26T15:40:00;25.20;66.50
4501;DHT22;2263;54.654;9.410;2023-06-26T15:42:28;25.20;66.60
4501;DHT22;2263;54.654;9.410;2023-06-26T15:44:58;25.20;66.40
4501;DHT22;2263;54.654;9.410;2023-06-26T15:47:26;25.20;65.40
4501;DHT22;2263;54.654;9.410;2023-06-26T15:49:53;25.10;65.80
4501;DHT22;2263;54.654;9.410;2023-06-26T15:52:21;25.10;66.10
4501;DHT22;2263;54.654;9.410;2023-06-26T15:54:49;25.10;65.80
4501;DHT22;2263;54.654;9.410;2023-06-26T15:57:17;25.10;66.30
4501;DHT22;2263;54.654;9.410;2023-06-26T15:59:44;25.10;66.40
4501;DHT22;2263;54.654;9.410;2023-06-26T16:02:12;25.10;66.60
4501;DHT22;2263;54.654;9.410;2023-06-26T16:04:40;25.10;66.40
4501;DHT22;2263;54.654;9.410;2023-06-26T16:07:08;25.10;65.80
4501;DHT22;2263;54.654;9.410;2023-06-26T16:09:36;25.10;65.70
4501;DHT22;2263;54.654;9.410;2023-06-26T16:12:04;25.00;65.70
4501;DHT22;2263;54.654;9.410;2023-06-26T16:14:31;25.00;65.70
4501;DHT22;2263;54.654;9.410;2023-06-26T16:16:59;25.00;65.80
4501;DHT22;2263;54.654;9.410;2023-06-26T16:19:28;25.00;65.40
4501;DHT22;2263;54.654;9.410;2023-06-26T16:21:56;25.00;66.00
4501;DHT22;2263;54.654;9.410;2023-06-26T16:24:23;25.00;65.70
4501;DHT22;2263;54.654;9.410;2023-06-26T16:26:53;25.00;65.80
4501;DHT22;2263;54.654;9.410;2023-06-26T16:29:20;25.00;65.80
4501;DHT22;2263;54.654;9.410;2023-06-26T16:31:48;25.00;65.30